Time;durP1;ratioP1;P1;durP2;ratioP2;P2;SDS_P1;SDS_P2;PMS_P1;PMS_P2;Temp;Humidity;BMP_temperature;BMP_pressure;BME280_temperature;BME280_humidity;BME280_pressure;Samples;Min_cycle;Max_cycle;Signal;HPM_P1;HPM_P2
2023/01/05 00:00:16;;;;;;;12.25;2.60;;;10.30;99.90;;;;;;5046527;28;20204;-69
2023/01/05 00:02:43;;;;;;;14.38;2.65;;;10.20;99.90;;;;;;5047729;28;20217;-69
2023/01/05 00:05:10;;;;;;;9.73;2.03;;;10.20;99.90;;;;;;5016932;28;20236;-69
2023/01/05 00:07:37;;;;;;;7.38;1.95;;;10.20;99.90;;;;;;5040153;28;20236;-69
2023/01/05 00:22:29;;;;;;;6.50;1.77;;;10.20;99.90;;;;;;5030938;28;20342;-70
2023/01/05 00:23:53;;;;;;;5.95;2.15;;;10.20;99.90;;;;;;4993624;28;20198;-67
2023/01/05 00:26:20;;;;;;;14.18;2.70;;;10.10;99.90;;;;;;5032684;28;21191;-67
2023/01/05 00:28:48;;;;;;;9.70;2.28;;;10.10;99.90;;;;;;5030107;28;20412;-70
2023/01/05 00:31:15;;;;;;;6.82;2.08;;;10.00;99.90;;;;;;5045210;28;20315;-69
2023/01/05 00:33:42;;;;;;;11.93;2.55;;;10.00;99.90;;;;;;5036465;28;20366;-70
2023/01/05 00:36:09;;;;;;;7.50;1.55;;;10.00;99.90;;;;;;5015829;28;20205;-69
2023/01/05 00:38:36;;;;;;;10.20;2.50;;;10.00;99.90;;;;;;5031141;28;20208;-69
2023/01/05 00:41:03;;;;;;;12.90;2.30;;;10.00;99.90;;;;;;5034641;28;20288;-69
2023/01/05 00:43:30;;;;;;;7.22;2.17;;;10.00;99.90;;;;;;5047051;28;20228;-67
2023/01/05 00:45:58;;;;;;;5.63;1.70;;;10.00;99.90;;;;;;5048468;28;20216;-67
2023/01/05 00:48:25;;;;;;;6.28;2.25;;;9.90;99.90;;;;;;5043301;28;20597;-67
2023/01/05 00:50:52;;;;;;;7.57;1.73;;;9.90;99.90;;;;;;5019098;28;20706;-69
2023/01/05 00:53:19;;;;;;;10.32;2.17;;;10.00;99.90;;;;;;5047861;28;20285;-69
2023/01/05 00:55:55;;;;;;;4.80;2.30;;;9.90;99.90;;;;;;5036166;28;20281;-69
2023/01/05 00:58:21;;;;;;;7.03;1.90;;;9.90;99.90;;;;;;5046292;28;21208;-70
2023/01/05 01:00:48;;;;;;;11.63;2.47;;;10.00;99.90;;;;;;5048789;28;20287;-69
2023/01/05 01:03:16;;;;;;;9.23;1.90;;;9.90;99.90;;;;;;5046651;28;20278;-69
2023/01/05 01:05:43;;;;;;;9.60;1.73;;;9.90;99.90;;;;;;5021053;28;20313;-69
2023/01/05 01:08:10;;;;;;;6.35;1.85;;;9.90;99.90;;;;;;5047311;28;20201;-69
2023/01/05 01:10:39;;;;;;;3.22;1.40;;;9.90;99.90;;;;;;5036542;28;20320;-69
2023/01/05 01:13:06;;;;;;;3.72;1.52;;;9.90;99.90;;;;;;5046849;28;20327;-69
2023/01/05 01:15:33;;;;;;;4.80;1.45;;;9.90;99.90;;;;;;5046241;28;20346;-67
2023/01/05 01:18:00;;;;;;;5.07;1.70;;;9.90;99.90;;;;;;5047753;28;20240;-67
2023/01/05 01:20:28;;;;;;;10.20;2.00;;;9.90;99.90;;;;;;5048209;28;20225;-67
2023/01/05 01:22:55;;;;;;;7.22;1.80;;;9.90;99.90;;;;;;5000657;28;20345;-69
2023/01/05 01:25:22;;;;;;;8.93;1.80;;;9.90;99.90;;;;;;5032475;28;20592;-68
2023/01/05 01:27:49;;;;;;;13.80;2.67;;;9.80;99.90;;;;;;5042102;28;20304;-67
2023/01/05 01:30:16;;;;;;;9.73;2.03;;;9.80;99.90;;;;;;5048125;28;20224;-67
2023/01/05 01:32:43;;;;;;;9.13;1.77;;;9.90;99.90;;;;;;5052805;28;20321;-68
2023/01/05 01:35:10;;;;;;;6.07;1.75;;;9.80;99.90;;;;;;5045615;28;20370;-67
2023/01/05 01:37:38;;;;;;;3.63;1.55;;;9.80;99.90;;;;;;5018054;28;20627;-67
2023/01/05 01:40:06;;;;;;;9.23;1.53;;;9.80;99.90;;;;;;5046007;28;20272;-67
2023/01/05 01:42:33;;;;;;;5.18;1.63;;;9.80;99.90;;;;;;5034942;28;20207;-67
2023/01/05 01:45:02;;;;;;;6.63;1.90;;;9.80;99.90;;;;;;5040821;28;20292;-67
2023/01/05 01:47:37;;;;;;;7.47;1.92;;;9.80;99.90;;;;;;5044816;28;20221;-68
2023/01/05 01:50:08;;;;;;;7.63;1.90;;;9.80;99.90;;;;;;5045172;28;20556;-67
2023/01/05 01:52:37;;;;;;;7.88;1.60;;;9.80;99.90;;;;;;5019324;28;20212;-69
2023/01/05 01:55:06;;;;;;;6.20;2.25;;;9.80;99.90;;;;;;5044147;28;20312;-69
2023/01/05 01:57:35;;;;;;;11.27;2.15;;;9.80;99.90;;;;;;5031457;28;20277;-68
2023/01/05 02:00:05;;;;;;;12.43;3.00;;;9.70;99.90;;;;;;5038410;28;20232;-67
2023/01/05 02:02:32;;;;;;;6.20;1.75;;;9.70;99.90;;;;;;5045765;28;20338;-67
2023/01/05 02:05:04;;;;;;;10.83;2.20;;;9.80;99.90;;;;;;5047956;28;20339;-67
2023/01/05 02:07:34;;;;;;;10.38;1.98;;;9.80;99.90;;;;;;5024273;28;20203;-70
2023/01/05 02:10:02;;;;;;;8.50;2.05;;;9.70;99.90;;;;;;5046745;28;20299;-69
2023/01/05 02:12:38;;;;;;;11.40;2.25;;;9.80;99.90;;;;;;5040233;28;20241;-67
2023/01/05 02:15:18;;;;;;;10.98;2.40;;;9.80;99.90;;;;;;5039981;28;20232;-67
2023/01/05 02:17:57;;;;;;;10.30;2.55;;;9.80;99.90;;;;;;5044066;28;20278;-67
2023/01/05 02:20:48;;;;;;;8.20;2.03;;;9.80;99.90;;;;;;5047079;28;20321;-68
2023/01/05 02:23:38;;;;;;;7.65;2.05;;;9.80;99.90;;;;;;5020593;28;20264;-67
2023/01/05 02:26:28;;;;;;;6.35;2.85;;;9.80;99.90;;;;;;5048005;28;20370;-67
2023/01/05 02:29:18;;;;;;;9.93;2.58;;;9.80;99.90;;;;;;5031921;28;20311;-68
2023/01/05 02:31:53;;;;;;;10.70;2.00;;;9.80;99.90;;;;;;5038232;28;20235;-67
2023/01/05 02:34:25;;;;;;;10.35;2.13;;;9.80;99.90;;;;;;5047324;28;20307;-67
2023/01/05 02:36:56;;;;;;;8.32;1.90;;;9.90;99.90;;;;;;5045280;28;20311;-67
2023/01/05 02:39:29;;;;;;;15.53;2.50;;;9.90;99.90;;;;;;5018229;28;20789;-68
2023/01/05 02:41:59;;;;;;;10.13;3.05;;;9.80;99.90;;;;;;5049594;28;20229;-67
2023/01/05 02:44:30;;;;;;;4.20;1.75;;;9.80;99.90;;;;;;5033397;28;21035;-67
2023/01/05 02:47:03;;;;;;;5.40;1.80;;;9.90;99.90;;;;;;5038974;28;21044;-67
2023/01/05 02:49:33;;;;;;;3.85;2.17;;;9.90;99.90;;;;;;5043373;28;20324;-67
2023/01/05 02:52:01;;;;;;;12.18;2.88;;;9.90;99.90;;;;;;5049325;28;20287;-67
2023/01/05 02:54:33;;;;;;;10.05;2.53;;;9.90;99.90;;;;;;5017429;28;20254;-67
2023/01/05 02:57:05;;;;;;;5.57;1.95;;;9.80;99.90;;;;;;5048780;28;20254;-68
2023/01/05 02:59:35;;;;;;;10.75;2.35;;;9.80;99.90;;;;;;5030291;28;20296;-67
2023/01/05 03:02:06;;;;;;;7.35;2.05;;;9.80;99.90;;;;;;5035811;28;21061;-69
2023/01/05 03:04:38;;;;;;;8.45;2.55;;;9.80;99.90;;;;;;5045202;28;20283;-69
2023/01/05 03:07:08;;;;;;;6.23;2.47;;;9.80;99.90;;;;;;5025946;28;20220;-69
2023/01/05 03:09:38;;;;;;;9.32;2.05;;;9.80;99.90;;;;;;5011273;28;20707;-70
2023/01/05 03:14:56;;;;;;;10.35;2.58;;;9.80;99.90;;;;;;5031481;28;20231;-67
2023/01/05 03:17:29;;;;;;;10.38;2.55;;;9.90;99.90;;;;;;5034940;28;20293;-67
2023/01/05 03:19:58;;;;;;;12.60;2.50;;;9.80;99.90;;;;;;5042042;28;21415;-67
2023/01/05 03:36:41;;;;;;;12.35;2.28;;;9.70;99.90;;;;;;5048912;28;20212;-68
2023/01/05 03:39:10;;;;;;;10.25;2.50;;;9.70;99.90;;;;;;5043481;28;21285;-68
2023/01/05 03:41:38;;;;;;;8.33;2.63;;;9.70;99.90;;;;;;5021292;28;20200;-68
2023/01/05 03:44:07;;;;;;;10.23;2.05;;;9.70;99.90;;;;;;5026932;28;20320;-68
2023/01/05 03:46:34;;;;;;;10.65;2.40;;;9.70;99.90;;;;;;5038080;28;20224;-67
2023/01/05 03:49:02;;;;;;;10.00;2.47;;;9.70;99.90;;;;;;5039216;28;20331;-67
2023/01/05 03:51:29;;;;;;;8.40;2.10;;;9.70;99.90;;;;;;5037804;28;20311;-68
2023/01/05 03:53:56;;;;;;;19.67;2.20;;;9.60;99.90;;;;;;5036746;28;20317;-68
2023/01/05 03:56:22;;;;;;;8.60;2.03;;;9.60;99.90;;;;;;5007386;28;20273;-68
2023/01/05 03:58:49;;;;;;;16.55;3.35;;;9.70;99.90;;;;;;5030889;28;21358;-68
2023/01/05 04:01:16;;;;;;;9.70;2.53;;;9.70;99.90;;;;;;5020246;28;20324;-67
2023/01/05 04:03:43;;;;;;;10.43;2.50;;;9.70;99.90;;;;;;5036004;28;20213;-67
2023/01/05 04:06:11;;;;;;;14.88;2.30;;;9.70;99.90;;;;;;5017999;28;20283;-68
2023/01/05 04:08:38;;;;;;;11.17;2.20;;;9.70;99.90;;;;;;5041182;28;20513;-68
2023/01/05 04:11:16;;;;;;;12.40;3.00;;;9.70;99.90;;;;;;5015868;28;20224;-67
2023/01/05 04:13:43;;;;;;;10.13;2.30;;;9.70;99.90;;;;;;5023995;28;21036;-68
2023/01/05 04:16:10;;;;;;;7.10;2.07;;;9.70;99.90;;;;;;5030295;28;20348;-68
2023/01/05 04:18:37;;;;;;;12.83;3.20;;;9.70;99.90;;;;;;5030869;28;20229;-68
2023/01/05 04:21:05;;;;;;;12.47;2.93;;;9.70;99.90;;;;;;5045111;28;20220;-68
2023/01/05 04:23:34;;;;;;;11.30;2.73;;;9.70;99.90;;;;;;5045350;28;20754;-68
2023/01/05 04:26:01;;;;;;;14.23;2.23;;;9.70;99.90;;;;;;5012279;28;20217;-68
2023/01/05 04:28:28;;;;;;;6.40;2.33;;;9.70;99.90;;;;;;5049180;28;20292;-67
2023/01/05 04:30:55;;;;;;;13.18;2.15;;;9.70;99.90;;;;;;5033880;28;20699;-68
2023/01/05 04:33:23;;;;;;;11.00;2.20;;;9.60;99.90;;;;;;5051272;28;20288;-67
2023/01/05 04:35:50;;;;;;;6.00;1.70;;;9.70;99.90;;;;;;5038749;28;21368;-68
2023/01/05 04:38:17;;;;;;;7.10;2.57;;;9.70;99.90;;;;;;5037091;28;20411;-68
2023/01/05 04:40:49;;;;;;;14.37;2.43;;;9.70;99.90;;;;;;5045649;28;20258;-68
2023/01/05 04:43:16;;;;;;;9.50;2.63;;;9.70;99.90;;;;;;5024144;28;20300;-67
2023/01/05 04:45:43;;;;;;;11.35;2.60;;;9.70;99.90;;;;;;5031896;28;20247;-68
2023/01/05 04:48:09;;;;;;;15.23;2.75;;;9.70;99.90;;;;;;5052436;28;20251;-67
2023/01/05 04:50:36;;;;;;;13.27;2.25;;;9.60;99.90;;;;;;5036241;28;20295;-68
2023/01/05 04:53:03;;;;;;;11.00;2.25;;;9.60;99.90;;;;;;5038089;28;20373;-67
2023/01/05 04:55:30;;;;;;;8.32;2.03;;;9.60;99.90;;;;;;5043037;28;20797;-67
2023/01/05 04:57:58;;;;;;;8.87;2.67;;;9.60;99.90;;;;;;5022325;28;20218;-68
2023/01/05 05:00:25;;;;;;;9.43;2.80;;;9.60;99.90;;;;;;5044019;28;20326;-68
2023/01/05 05:02:52;;;;;;;13.80;2.90;;;9.60;99.90;;;;;;5033325;28;20201;-68
2023/01/05 05:05:19;;;;;;;10.70;2.53;;;9.60;99.90;;;;;;5033162;28;20263;-68
2023/01/05 05:07:46;;;;;;;11.40;2.37;;;9.50;99.90;;;;;;5044057;28;20285;-68
2023/01/05 05:10:16;;;;;;;11.20;2.50;;;9.60;99.90;;;;;;5038900;28;20296;-67
2023/01/05 05:12:43;;;;;;;12.83;2.30;;;9.50;99.90;;;;;;5041526;28;20679;-68
2023/01/05 05:15:12;;;;;;;10.87;2.83;;;9.50;99.90;;;;;;5020485;28;21958;-68
2023/01/05 05:17:39;;;;;;;10.07;2.20;;;9.50;99.90;;;;;;5036184;28;20208;-68
2023/01/05 05:20:07;;;;;;;8.83;2.57;;;9.50;99.90;;;;;;5038533;28;20320;-68
2023/01/05 05:22:34;;;;;;;12.25;2.85;;;9.50;99.90;;;;;;5042304;28;20306;-68
2023/01/05 05:25:01;;;;;;;11.95;2.58;;;9.50;99.90;;;;;;5034151;28;20288;-68
2023/01/05 05:27:28;;;;;;;9.50;2.30;;;9.50;99.90;;;;;;5050417;28;20228;-68
2023/01/05 05:29:55;;;;;;;12.57;2.80;;;9.40;99.90;;;;;;5019575;28;20205;-68
2023/01/05 05:32:23;;;;;;;21.03;2.53;;;9.50;99.90;;;;;;5024551;28;20525;-68
2023/01/05 05:34:50;;;;;;;10.80;2.55;;;9.40;99.90;;;;;;5049830;28;20282;-68
2023/01/05 05:37:17;;;;;;;12.50;2.30;;;9.50;99.90;;;;;;5049677;28;20224;-68
2023/01/05 05:39:43;;;;;;;15.88;2.72;;;9.50;99.90;;;;;;5044187;28;20305;-67
2023/01/05 05:42:10;;;;;;;12.77;2.10;;;9.50;99.90;;;;;;5039966;28;20543;-68
2023/01/05 05:44:37;;;;;;;15.67;2.77;;;9.50;99.90;;;;;;5023341;28;20309;-68
2023/01/05 05:47:04;;;;;;;18.75;3.50;;;9.50;99.90;;;;;;5038684;28;21985;-68
2023/01/05 05:49:32;;;;;;;8.70;2.23;;;9.50;99.90;;;;;;5050113;28;20292;-68
2023/01/05 05:51:59;;;;;;;14.87;2.33;;;9.50;99.90;;;;;;5048421;28;20224;-68
2023/01/05 05:54:26;;;;;;;16.37;2.60;;;9.50;99.90;;;;;;5042324;28;20293;-68
2023/01/05 05:56:53;;;;;;;15.65;2.83;;;9.50;99.90;;;;;;5032052;28;20315;-68
2023/01/05 05:59:20;;;;;;;7.57;2.03;;;9.40;99.90;;;;;;5042739;28;20255;-68
2023/01/05 06:01:47;;;;;;;5.28;2.63;;;9.40;99.90;;;;;;5016223;28;20363;-68
2023/01/05 06:04:13;;;;;;;9.10;1.70;;;9.40;99.90;;;;;;5038780;28;20693;-68
2023/01/05 06:06:42;;;;;;;12.67;2.63;;;9.30;99.90;;;;;;5042739;28;20308;-68
2023/01/05 06:09:08;;;;;;;10.13;2.40;;;9.30;99.90;;;;;;5027067;28;20319;-68
2023/01/05 06:11:35;;;;;;;8.27;2.27;;;9.30;99.90;;;;;;5047286;28;20274;-68
2023/01/05 06:14:03;;;;;;;9.23;1.93;;;9.30;99.90;;;;;;5041972;28;20962;-68
2023/01/05 06:16:30;;;;;;;11.93;1.80;;;9.20;99.90;;;;;;5018741;28;20784;-68
2023/01/05 06:18:57;;;;;;;14.30;1.90;;;9.20;99.90;;;;;;5034712;28;20343;-67
2023/01/05 06:21:23;;;;;;;9.03;1.90;;;9.20;99.90;;;;;;5049409;28;20281;-68
2023/01/05 06:23:52;;;;;;;11.93;2.30;;;9.20;99.90;;;;;;5045885;28;20287;-67
2023/01/05 06:26:19;;;;;;;8.53;1.63;;;9.20;99.90;;;;;;5034704;28;20228;-67
2023/01/05 06:28:45;;;;;;;9.83;1.70;;;9.10;99.90;;;;;;5025221;28;20315;-67
2023/01/05 06:31:12;;;;;;;11.53;2.20;;;9.10;99.90;;;;;;5010891;28;20350;-67
2023/01/05 06:33:39;;;;;;;11.10;2.37;;;9.00;99.90;;;;;;5043341;28;20292;-67
2023/01/05 06:36:07;;;;;;;10.63;2.13;;;9.00;99.90;;;;;;5036988;28;20331;-68
2023/01/05 06:38:34;;;;;;;8.70;1.97;;;9.00;99.90;;;;;;5046779;28;20300;-67
2023/01/05 06:41:02;;;;;;;5.80;1.60;;;9.00;99.90;;;;;;5033086;28;21407;-67
2023/01/05 06:43:29;;;;;;;9.87;1.70;;;8.90;99.90;;;;;;5053875;28;20284;-68
2023/01/05 06:45:56;;;;;;;5.00;1.43;;;8.80;99.90;;;;;;5017981;28;21527;-67
2023/01/05 06:48:22;;;;;;;3.77;1.50;;;8.80;99.90;;;;;;5047801;28;20225;-67
2023/01/05 06:50:49;;;;;;;8.57;2.43;;;8.80;99.90;;;;;;5034335;28;21463;-68
2023/01/05 06:53:16;;;;;;;5.40;1.60;;;8.70;99.90;;;;;;5048620;28;21741;-68
2023/01/05 06:55:44;;;;;;;10.07;1.90;;;8.70;99.90;;;;;;5040345;28;20334;-68
2023/01/05 06:58:12;;;;;;;11.10;1.67;;;8.60;99.90;;;;;;5042335;28;20667;-67
2023/01/05 07:00:39;;;;;;;7.97;1.83;;;8.70;99.90;;;;;;5034321;28;20224;-68
2023/01/05 07:03:07;;;;;;;4.60;1.67;;;8.60;99.90;;;;;;5032021;28;20257;-67
2023/01/05 07:05:34;;;;;;;4.93;1.13;;;8.60;99.90;;;;;;5034603;28;20204;-68
2023/01/05 07:08:01;;;;;;;9.30;1.47;;;8.60;99.90;;;;;;5017348;28;20862;-67
2023/01/05 07:10:28;;;;;;;6.33;1.20;;;8.60;99.90;;;;;;5033521;28;21044;-67
2023/01/05 07:12:54;;;;;;;10.03;1.70;;;8.60;99.90;;;;;;5018978;28;20215;-67
2023/01/05 07:15:23;;;;;;;7.13;1.80;;;8.50;99.90;;;;;;5038073;28;20307;-67
2023/01/05 07:17:51;;;;;;;9.33;1.40;;;9.00;99.90;;;;;;5008990;28;20225;-68
2023/01/05 07:20:18;;;;;;;6.90;1.77;;;9.00;99.90;;;;;;5034354;28;20288;-68
2023/01/05 07:22:44;;;;;;;5.67;1.13;;;8.70;99.90;;;;;;5024688;28;20259;-69
2023/01/05 07:25:11;;;;;;;9.27;1.47;;;8.60;99.90;;;;;;5036593;28;20319;-69
2023/01/05 07:27:41;;;;;;;9.20;1.73;;;8.50;99.90;;;;;;5027901;28;20296;-69
2023/01/05 07:30:09;;;;;;;7.90;1.87;;;8.50;99.90;;;;;;5033618;28;20763;-69
2023/01/05 07:32:38;;;;;;;7.63;1.97;;;8.40;99.90;;;;;;5002017;28;20252;-69
2023/01/05 07:35:05;;;;;;;6.63;1.53;;;8.40;99.90;;;;;;5041959;28;20335;-69
2023/01/05 07:37:32;;;;;;;4.73;1.77;;;8.40;99.90;;;;;;5029384;28;20252;-69
2023/01/05 07:39:59;;;;;;;7.60;1.30;;;8.40;99.90;;;;;;5047376;28;20283;-70
2023/01/05 07:42:26;;;;;;;4.23;1.50;;;8.40;99.90;;;;;;5040167;22;20300;-68
2023/01/05 07:44:53;;;;;;;5.83;1.17;;;8.40;99.90;;;;;;4998460;28;20324;-69
2023/01/05 07:47:20;;;;;;;9.60;1.80;;;8.40;99.90;;;;;;5016013;28;20245;-69
2023/01/05 07:49:48;;;;;;;9.23;1.87;;;8.40;99.90;;;;;;4995215;28;20258;-68
2023/01/05 07:52:15;;;;;;;6.20;1.57;;;8.30;99.90;;;;;;5017208;28;20674;-69
2023/01/05 07:54:42;;;;;;;9.13;1.60;;;8.30;99.90;;;;;;5021112;28;20205;-73
2023/01/05 07:57:09;;;;;;;6.73;1.37;;;8.20;99.90;;;;;;5020195;28;21024;-69
2023/01/05 07:59:36;;;;;;;7.43;1.70;;;8.30;99.90;;;;;;5007612;28;20312;-68
2023/01/05 08:02:03;;;;;;;10.10;1.97;;;8.20;99.90;;;;;;5026127;28;20194;-68
2023/01/05 08:04:30;;;;;;;11.33;1.60;;;8.20;99.90;;;;;;5000711;28;20332;-68
2023/01/05 08:06:58;;;;;;;10.43;1.27;;;8.10;99.90;;;;;;5011141;28;20294;-69
2023/01/05 08:12:10;;;;;;;8.27;1.50;;;8.20;99.90;;;;;;5018035;28;20236;-68
2023/01/05 08:14:37;;;;;;;10.23;1.70;;;8.20;99.90;;;;;;5014710;28;20279;-69
2023/01/05 08:17:03;;;;;;;6.20;1.30;;;8.20;99.90;;;;;;5029425;28;20252;-68
2023/01/05 08:19:30;;;;;;;5.30;1.30;;;8.10;99.90;;;;;;5018866;22;20418;-68
2023/01/05 08:21:59;;;;;;;7.83;2.10;;;8.10;99.90;;;;;;5032351;28;20224;-69
2023/01/05 08:24:26;;;;;;;9.20;1.80;;;8.10;99.90;;;;;;5022286;28;21053;-68
2023/01/05 08:26:53;;;;;;;3.13;1.10;;;8.10;99.90;;;;;;5057356;28;20294;-68
2023/01/05 08:29:20;;;;;;;7.83;1.50;;;8.10;99.90;;;;;;5045374;28;20566;-69
2023/01/05 08:31:46;;;;;;;5.53;2.60;;;8.10;99.90;;;;;;5059092;28;20649;-68
2023/01/05 08:34:14;;;;;;;8.13;1.63;;;8.10;99.90;;;;;;5027680;28;20957;-69
2023/01/05 08:36:40;;;;;;;4.50;0.97;;;8.10;99.90;;;;;;5052350;28;20231;-69
2023/01/05 08:39:10;;;;;;;8.13;1.20;;;8.10;99.90;;;;;;5037886;28;20224;-69
2023/01/05 08:41:39;;;;;;;4.40;1.33;;;8.10;99.90;;;;;;5067114;28;21194;-69
2023/01/05 08:44:08;;;;;;;5.17;1.63;;;8.20;99.90;;;;;;5057034;28;20764;-69
2023/01/05 08:46:35;;;;;;;5.73;1.27;;;8.20;99.90;;;;;;5038880;28;20231;-69
2023/01/05 08:49:05;;;;;;;8.70;1.50;;;8.20;99.90;;;;;;5065560;28;20246;-69
2023/01/05 08:51:32;;;;;;;3.50;1.47;;;8.20;99.90;;;;;;5012313;28;20315;-68
2023/01/05 08:54:00;;;;;;;6.40;1.63;;;8.20;99.90;;;;;;5064830;28;20323;-69
2023/01/05 08:56:28;;;;;;;5.20;1.03;;;8.20;99.90;;;;;;5049639;28;20306;-69
2023/01/05 08:58:57;;;;;;;6.37;1.17;;;8.20;99.90;;;;;;5062142;28;20678;-69
2023/01/05 09:01:25;;;;;;;9.27;1.53;;;9.60;99.90;;;;;;5046099;28;21564;-68
2023/01/05 09:03:52;;;;;;;8.63;1.47;;;8.30;99.90;;;;;;5055159;28;20240;-67
2023/01/05 09:06:19;;;;;;;6.27;1.33;;;8.20;99.90;;;;;;5008439;28;22056;-69
2023/01/05 09:08:47;;;;;;;6.60;1.47;;;8.30;99.90;;;;;;5037793;28;20338;-68
2023/01/05 09:11:15;;;;;;;7.57;1.60;;;8.20;99.90;;;;;;5031551;28;20204;-68
2023/01/05 09:13:47;;;;;;;7.50;1.17;;;8.20;99.90;;;;;;5024387;28;20207;-69
2023/01/05 09:16:16;;;;;;;5.07;1.13;;;8.30;99.90;;;;;;5026929;28;21213;-68
2023/01/05 09:18:43;;;;;;;4.77;1.37;;;8.30;99.90;;;;;;5061636;28;20680;-68
2023/01/05 09:21:10;;;;;;;6.43;1.33;;;8.30;99.90;;;;;;5051192;28;20223;-68
2023/01/05 09:23:38;;;;;;;3.43;1.40;;;8.30;99.90;;;;;;5031818;28;20216;-68
2023/01/05 09:26:05;;;;;;;6.97;1.40;;;8.40;99.90;;;;;;5049554;28;20291;-68
2023/01/05 09:28:34;;;;;;;6.57;1.33;;;8.30;99.90;;;;;;5023327;28;20522;-69
2023/01/05 09:31:08;;;;;;;7.87;1.20;;;8.30;99.90;;;;;;5063446;28;20192;-69
2023/01/05 09:33:35;;;;;;;3.60;1.00;;;8.40;99.90;;;;;;5042451;28;20299;-69
2023/01/05 09:36:02;;;;;;;8.80;1.27;;;8.40;99.90;;;;;;5045304;28;20313;-68
2023/01/05 09:38:29;;;;;;;4.33;1.07;;;8.40;99.90;;;;;;5004475;28;20306;-68
2023/01/05 09:41:03;;;;;;;6.83;1.13;;;8.40;99.90;;;;;;5055869;28;25449;-68
2023/01/05 09:43:36;;;;;;;12.23;1.80;;;8.40;99.90;;;;;;5031024;28;20343;-68
2023/01/05 09:46:06;;;;;;;12.10;1.23;;;8.40;99.90;;;;;;5051586;28;20925;-69
2023/01/05 09:48:40;;;;;;;4.33;1.27;;;8.50;99.90;;;;;;5047414;28;20204;-68
2023/01/05 09:51:08;;;;;;;8.33;1.50;;;8.50;99.90;;;;;;5062585;28;20389;-68
2023/01/05 09:53:36;;;;;;;8.23;1.60;;;8.50;99.90;;;;;;5028212;28;21690;-68
2023/01/05 09:56:03;;;;;;;8.23;1.20;;;8.60;99.90;;;;;;5053591;28;20244;-68
2023/01/05 09:58:35;;;;;;;4.60;1.23;;;8.60;99.90;;;;;;5038215;28;20425;-68
2023/01/05 10:01:09;;;;;;;6.23;1.17;;;8.60;99.90;;;;;;5068128;28;20321;-67
2023/01/05 10:03:41;;;;;;;10.23;1.20;;;8.60;99.90;;;;;;5046581;28;20793;-67
2023/01/05 10:06:13;;;;;;;7.33;1.33;;;8.60;99.90;;;;;;5068136;28;21498;-68
2023/01/05 10:08:43;;;;;;;3.83;1.47;;;8.60;99.90;;;;;;5029061;28;20236;-68
2023/01/05 10:14:05;;;;;;;8.33;1.57;;;8.70;99.90;;;;;;5054809;28;20231;-68
2023/01/05 10:16:32;;;;;;;8.30;1.70;;;8.70;99.90;;;;;;5070275;28;20318;-68
2023/01/05 10:19:01;;;;;;;10.43;1.40;;;8.70;99.90;;;;;;5053140;28;20326;-68
2023/01/05 10:21:37;;;;;;;8.83;2.10;;;8.70;99.90;;;;;;5071297;28;20251;-68
2023/01/05 10:24:20;;;;;;;15.40;1.70;;;8.80;99.90;;;;;;5033027;28;20207;-68
2023/01/05 10:26:53;;;;;;;2.07;0.97;;;8.80;99.90;;;;;;5064632;28;20192;-68
2023/01/05 10:29:25;;;;;;;5.17;1.37;;;8.80;99.90;;;;;;5048915;28;20363;-68
2023/01/05 10:31:58;;;;;;;5.00;1.30;;;8.80;99.90;;;;;;5059493;28;20235;-68
2023/01/05 10:34:39;;;;;;;6.57;1.37;;;8.80;99.90;;;;;;5045035;28;20309;-68
2023/01/05 10:37:21;;;;;;;6.87;1.33;;;8.80;99.90;;;;;;5064665;28;20334;-68
2023/01/05 10:40:00;;;;;;;3.97;1.37;;;8.80;99.90;;;;;;5048775;28;20291;-69
2023/01/05 10:42:45;;;;;;;8.83;1.23;;;8.80;99.90;;;;;;5065167;28;20250;-68
2023/01/05 10:45:14;;;;;;;6.37;1.73;;;8.90;99.90;;;;;;5054041;28;20226;-68
2023/01/05 10:47:43;;;;;;;9.60;1.90;;;8.90;99.90;;;;;;5065579;28;20265;-68
2023/01/05 10:50:37;;;;;;;5.70;1.57;;;8.90;99.90;;;;;;5055632;28;20200;-68
2023/01/05 10:53:09;;;;;;;9.07;1.83;;;8.90;99.90;;;;;;5057695;28;21352;-68
2023/01/05 10:55:47;;;;;;;6.63;1.40;;;8.90;99.90;;;;;;5038169;28;20204;-68
2023/01/05 10:58:25;;;;;;;5.73;1.10;;;9.00;99.90;;;;;;5043900;28;20384;-68
2023/01/05 11:00:55;;;;;;;8.40;1.50;;;9.00;99.90;;;;;;5045716;28;20228;-68
2023/01/05 11:03:29;;;;;;;7.37;1.50;;;9.00;99.90;;;;;;5038884;28;20229;-68
2023/01/05 11:05:57;;;;;;;12.87;1.63;;;9.00;99.90;;;;;;5047862;28;20278;-69
2023/01/05 11:08:28;;;;;;;12.70;1.50;;;9.00;99.90;;;;;;5057885;28;20989;-69
2023/01/05 11:10:58;;;;;;;10.27;1.50;;;9.00;99.90;;;;;;5029490;28;20196;-69
2023/01/05 11:13:31;;;;;;;11.30;1.50;;;9.00;99.90;;;;;;5051993;28;20944;-68
2023/01/05 11:16:07;;;;;;;8.00;1.27;;;9.10;99.90;;;;;;5027602;28;20216;-69
2023/01/05 11:18:36;;;;;;;7.90;1.40;;;9.10;99.90;;;;;;5042948;28;20618;-69
2023/01/05 11:21:16;;;;;;;8.87;1.13;;;9.10;99.90;;;;;;5038921;28;20473;-69
2023/01/05 11:23:45;;;;;;;9.87;1.17;;;9.10;99.90;;;;;;5058195;28;20626;-69
2023/01/05 11:26:28;;;;;;;5.73;0.90;;;9.10;99.90;;;;;;5056882;28;21271;-69
2023/01/05 11:29:04;;;;;;;6.50;1.53;;;9.10;99.90;;;;;;5020079;28;20727;-68
2023/01/05 11:31:36;;;;;;;9.25;1.13;;;9.10;99.90;;;;;;5066264;28;20290;-68
2023/01/05 11:34:09;;;;;;;4.17;1.00;;;9.10;99.90;;;;;;5037553;28;20570;-68
2023/01/05 11:36:38;;;;;;;3.85;1.85;;;9.10;99.90;;;;;;5036384;28;20238;-69
2023/01/05 11:39:05;;;;;;;7.97;1.20;;;9.10;99.90;;;;;;5057019;28;20211;-69
2023/01/05 11:41:33;;;;;;;7.73;1.10;;;9.10;99.90;;;;;;5055417;28;20287;-69
2023/01/05 11:44:02;;;;;;;7.90;1.27;;;9.10;99.90;;;;;;5027081;28;20425;-67
2023/01/05 11:46:41;;;;;;;5.50;1.37;;;9.20;99.90;;;;;;5052392;28;20617;-68
2023/01/05 11:49:09;;;;;;;7.47;1.70;;;9.20;99.90;;;;;;5031564;28;20918;-69
2023/01/05 11:51:40;;;;;;;7.57;1.33;;;9.20;99.90;;;;;;5035709;28;20215;-69
2023/01/05 11:54:32;;;;;;;10.57;1.37;;;9.30;99.90;;;;;;5050339;28;20209;-69
2023/01/05 11:57:16;;;;;;;8.02;1.48;;;9.30;99.90;;;;;;5051297;28;20277;-69
2023/01/05 11:59:45;;;;;;;6.20;1.17;;;9.30;99.90;;;;;;5059597;28;20200;-70
2023/01/05 12:02:45;;;;;;;5.75;1.67;;;9.30;99.90;;;;;;5046411;28;20200;-69
2023/01/05 12:05:25;;;;;;;11.50;1.85;;;9.30;99.90;;;;;;5009195;28;20234;-70
2023/01/05 12:07:58;;;;;;;4.73;1.00;;;9.30;99.90;;;;;;5044975;28;20883;-69
2023/01/05 12:10:42;;;;;;;3.07;1.10;;;9.30;99.90;;;;;;5050136;28;20865;-69
2023/01/05 12:13:24;;;;;;;8.83;1.60;;;9.30;99.90;;;;;;5036193;28;20189;-69
2023/01/05 12:16:00;;;;;;;8.80;1.53;;;9.30;99.90;;;;;;5053782;28;20713;-69
2023/01/05 12:18:53;;;;;;;5.03;1.40;;;9.40;99.90;;;;;;5042227;28;20755;-69
2023/01/05 12:21:23;;;;;;;8.07;1.40;;;9.30;99.90;;;;;;5014950;28;20227;-69
2023/01/05 12:24:19;;;;;;;3.85;1.45;;;9.30;99.90;;;;;;5054033;28;20236;-69
2023/01/05 12:26:59;;;;;;;5.72;1.13;;;9.30;99.90;;;;;;5049906;28;20303;-69
2023/01/05 12:29:50;;;;;;;5.22;1.55;;;9.30;99.90;;;;;;5028683;28;20644;-70
2023/01/05 12:32:31;;;;;;;4.37;1.47;;;9.30;99.90;;;;;;5058687;28;20629;-69
2023/01/05 12:35:26;;;;;;;8.77;1.25;;;9.30;99.90;;;;;;5040633;28;20208;-70
2023/01/05 12:38:10;;;;;;;5.88;1.38;;;9.30;99.90;;;;;;5031972;28;22852;-69
2023/01/05 12:40:52;;;;;;;7.57;1.35;;;9.30;99.90;;;;;;5061775;28;20489;-67
2023/01/05 12:43:30;;;;;;;4.95;1.17;;;9.40;99.90;;;;;;5048017;28;20241;-67
2023/01/05 12:46:09;;;;;;;9.88;1.20;;;9.50;99.90;;;;;;5049494;28;20207;-66
2023/01/05 12:48:40;;;;;;;3.55;1.10;;;9.60;99.90;;;;;;5061719;28;20318;-67
2023/01/05 12:51:14;;;;;;;4.53;1.30;;;9.60;99.90;;;;;;5039953;28;20282;-66
2023/01/05 12:53:47;;;;;;;7.50;1.93;;;9.60;99.90;;;;;;5022906;28;20204;-67
2023/01/05 12:56:27;;;;;;;6.10;1.20;;;9.50;99.90;;;;;;5058777;28;20657;-67
2023/01/05 12:59:14;;;;;;;3.00;0.82;;;9.40;99.90;;;;;;5031931;28;20693;-66
2023/01/05 13:01:48;;;;;;;5.05;1.67;;;9.30;99.90;;;;;;5058418;28;20226;-67
2023/01/05 13:04:35;;;;;;;5.33;1.00;;;9.30;99.90;;;;;;5040711;28;20203;-67
2023/01/05 13:07:09;;;;;;;5.55;1.25;;;9.20;99.90;;;;;;5040196;28;20239;-67
2023/01/05 13:09:38;;;;;;;10.13;1.17;;;9.20;99.90;;;;;;5053611;28;20290;-67
2023/01/05 13:12:11;;;;;;;11.00;1.73;;;9.20;99.90;;;;;;5051398;28;20225;-67
2023/01/05 13:14:51;;;;;;;3.85;1.15;;;9.20;99.90;;;;;;5028091;28;20224;-67
2023/01/05 13:17:25;;;;;;;4.70;1.50;;;9.20;99.90;;;;;;5054536;28;20240;-68
2023/01/05 13:20:00;;;;;;;4.53;1.03;;;9.20;99.90;;;;;;5054791;28;20240;-67
2023/01/05 13:22:30;;;;;;;5.60;1.20;;;9.20;99.90;;;;;;5048875;28;20228;-66
2023/01/05 13:25:03;;;;;;;4.43;1.60;;;9.20;99.90;;;;;;5031088;28;20721;-67
2023/01/05 13:27:32;;;;;;;6.38;1.45;;;9.10;99.90;;;;;;5052537;28;21017;-67
2023/01/05 13:30:02;;;;;;;4.43;1.55;;;9.20;99.90;;;;;;5046201;28;21508;-68
2023/01/05 13:32:45;;;;;;;3.20;1.58;;;9.20;99.90;;;;;;4991652;22;20239;-67
2023/01/05 13:35:38;;;;;;;3.17;1.15;;;9.30;99.90;;;;;;4940507;28;20226;-67
2023/01/05 13:38:24;;;;;;;4.13;1.15;;;9.30;99.90;;;;;;4918602;28;20714;-67
2023/01/05 13:41:06;;;;;;;6.45;1.02;;;9.40;99.90;;;;;;4930594;28;20228;-67
2023/01/05 13:44:07;;;;;;;8.02;1.83;;;9.50;99.90;;;;;;4938964;28;20239;-67